sensor_id;sensor_type;location;lat;lon;timestamp;pressure;altitude;pressure_sealevel;temperature;humidity
9091;BME280;4581;42.416;25.598;2023-04-20T00:02:13;66586.75;;;0.00;nan
9091;BME280;4581;42.416;25.598;2023-04-20T00:04:41;66592.84;;;0.00;nan
9091;BME280;4581;42.416;25.598;2023-04-20T00:07:08;66595.91;;;0.00;nan
9091;BME280;4581;42.416;25.598;2023-04-20T00:09:35;66592.84;;;0.00;nan
9091;BME280;4581;42.416;25.598;2023-04-20T00:12:01;66589.81;;;0.00;nan
9091;BME280;4581;42.416;25.598;2023-04-20T00:14:28;66588.28;;;0.00;nan
9091;BME280;4581;42.416;25.598;2023-04-20T00:16:55;66574.53;;;0.00;nan
9091;BME280;4581;42.416;25.598;2023-04-20T00:19:22;66571.50;;;0.00;nan
9091;BME280;4581;42.416;25.598;2023-04-20T00:21:49;66568.44;;;0.00;nan
9091;BME280;4581;42.416;25.598;2023-04-20T00:24:16;66557.75;;;0.00;nan
9091;BME280;4581;42.416;25.598;2023-04-20T00:26:42;66551.66;;;0.00;nan
9091;BME280;4581;42.416;25.598;2023-04-20T00:29:09;66545.56;;;0.00;nan
9091;BME280;4581;42.416;25.598;2023-04-20T00:31:36;66548.59;;;0.00;nan
9091;BME280;4581;42.416;25.598;2023-04-20T00:34:03;66542.50;;;0.00;nan
9091;BME280;4581;42.416;25.598;2023-04-20T00:36:29;66540.97;;;0.00;nan
9091;BME280;4581;42.416;25.598;2023-04-20T00:38:57;66542.50;;;0.00;nan
9091;BME280;4581;42.416;25.598;2023-04-20T00:41:24;66542.50;;;0.00;nan
9091;BME280;4581;42.416;25.598;2023-04-20T00:43:51;66545.56;;;0.00;nan
9091;BME280;4581;42.416;25.598;2023-04-20T00:46:19;66545.56;;;0.00;nan
9091;BME280;4581;42.416;25.598;2023-04-20T00:48:49;66542.50;;;0.00;nan
9091;BME280;4581;42.416;25.598;2023-04-20T00:51:18;66536.41;;;0.00;nan
9091;BME280;4581;42.416;25.598;2023-04-20T00:53:45;66534.88;;;0.00;nan
9091;BME280;4581;42.416;25.598;2023-04-20T00:56:13;66539.44;;;0.00;nan
9091;BME280;4581;42.416;25.598;2023-04-20T00:58:41;66536.41;;;0.00;nan
9091;BME280;4581;42.416;25.598;2023-04-20T01:01:09;66527.25;;;0.00;nan
9091;BME280;4581;42.416;25.598;2023-04-20T01:03:36;66525.72;;;0.00;nan
9091;BME280;4581;42.416;25.598;2023-04-20T01:06:05;66527.25;;;0.00;nan
9091;BME280;4581;42.416;25.598;2023-04-20T01:08:32;66527.25;;;0.00;nan
9091;BME280;4581;42.416;25.598;2023-04-20T01:10:59;66533.34;;;0.00;nan
9091;BME280;4581;42.416;25.598;2023-04-20T01:13:26;66522.66;;;0.00;nan
9091;BME280;4581;42.416;25.598;2023-04-20T01:15:52;66527.25;;;0.00;nan
9091;BME280;4581;42.416;25.598;2023-04-20T01:18:19;66519.63;;;0.00;nan
9091;BME280;4581;42.416;25.598;2023-04-20T01:20:46;66524.19;;;0.00;nan
9091;BME280;4581;42.416;25.598;2023-04-20T01:23:13;66525.72;;;0.00;nan
9091;BME280;4581;42.416;25.598;2023-04-20T01:25:40;66525.72;;;0.00;nan
9091;BME280;4581;42.416;25.598;2023-04-20T01:28:07;66531.81;;;0.00;nan
9091;BME280;4581;42.416;25.598;2023-04-20T01:30:35;66540.97;;;0.00;nan
9091;BME280;4581;42.416;25.598;2023-04-20T01:33:06;66554.72;;;0.00;nan
9091;BME280;4581;42.416;25.598;2023-04-20T01:35:32;66560.81;;;0.00;nan
9091;BME280;4581;42.416;25.598;2023-04-20T01:37:59;66565.38;;;0.00;nan
9091;BME280;4581;42.416;25.598;2023-04-20T01:40:26;66577.59;;;0.00;nan
9091;BME280;4581;42.416;25.598;2023-04-20T01:42:52;66571.50;;;0.00;nan
9091;BME280;4581;42.416;25.598;2023-04-20T01:45:19;66574.53;;;0.00;nan
9091;BME280;4581;42.416;25.598;2023-04-20T01:47:46;66565.38;;;0.00;nan
9091;BME280;4581;42.416;25.598;2023-04-20T01:50:13;66574.53;;;0.00;nan
9091;BME280;4581;42.416;25.598;2023-04-20T01:52:39;66566.91;;;0.00;nan
9091;BME280;4581;42.416;25.598;2023-04-20T01:55:06;66568.44;;;0.00;nan
9091;BME280;4581;42.416;25.598;2023-04-20T01:57:34;66568.44;;;0.00;nan
9091;BME280;4581;42.416;25.598;2023-04-20T02:00:01;66568.44;;;0.00;nan
9091;BME280;4581;42.416;25.598;2023-04-20T02:02:27;66565.38;;;0.00;nan
9091;BME280;4581;42.416;25.598;2023-04-20T02:04:54;66565.38;;;0.00;nan
9091;BME280;4581;42.416;25.598;2023-04-20T02:07:21;66563.88;;;0.00;nan
9091;BME280;4581;42.416;25.598;2023-04-20T02:09:47;66565.38;;;0.00;nan
9091;BME280;4581;42.416;25.598;2023-04-20T02:12:14;66571.50;;;0.00;nan
9091;BME280;4581;42.416;25.598;2023-04-20T02:14:41;66565.38;;;0.00;nan
9091;BME280;4581;42.416;25.598;2023-04-20T02:17:07;66568.44;;;0.00;nan
9091;BME280;4581;42.416;25.598;2023-04-20T02:19:34;66571.50;;;0.00;nan
9091;BME280;4581;42.416;25.598;2023-04-20T02:22:01;66574.53;;;0.00;nan
9091;BME280;4581;42.416;25.598;2023-04-20T02:24:28;66574.53;;;0.00;nan
9091;BME280;4581;42.416;25.598;2023-04-20T02:26:55;66568.44;;;0.00;nan
9091;BME280;4581;42.416;25.598;2023-04-20T02:29:22;66579.13;;;0.00;nan
9091;BME280;4581;42.416;25.598;2023-04-20T02:31:49;66577.59;;;0.00;nan
9091;BME280;4581;42.416;25.598;2023-04-20T02:34:16;66591.31;;;0.00;nan
9091;BME280;4581;42.416;25.598;2023-04-20T02:36:42;66589.81;;;0.00;nan
9091;BME280;4581;42.416;25.598;2023-04-20T02:39:09;66592.84;;;0.00;nan
9091;BME280;4581;42.416;25.598;2023-04-20T02:41:36;66592.84;;;0.00;nan
9091;BME280;4581;42.416;25.598;2023-04-20T02:44:02;66592.84;;;0.00;nan
9091;BME280;4581;42.416;25.598;2023-04-20T02:46:29;66592.84;;;0.00;nan
9091;BME280;4581;42.416;25.598;2023-04-20T02:48:56;66595.91;;;0.00;nan
9091;BME280;4581;42.416;25.598;2023-04-20T02:51:22;66595.91;;;0.00;nan
9091;BME280;4581;42.416;25.598;2023-04-20T02:53:49;66586.75;;;0.00;nan
9091;BME280;4581;42.416;25.598;2023-04-20T02:56:16;66603.53;;;0.00;nan
9091;BME280;4581;42.416;25.598;2023-04-20T02:58:43;66605.06;;;0.00;nan
9091;BME280;4581;42.416;25.598;2023-04-20T03:01:09;66606.59;;;0.00;nan
9091;BME280;4581;42.416;25.598;2023-04-20T03:03:36;66598.97;;;0.00;nan
9091;BME280;4581;42.416;25.598;2023-04-20T03:06:03;66600.47;;;0.00;nan
9091;BME280;4581;42.416;25.598;2023-04-20T03:08:30;66602.00;;;0.00;nan
9091;BME280;4581;42.416;25.598;2023-04-20T03:10:56;66602.00;;;0.00;nan
9091;BME280;4581;42.416;25.598;2023-04-20T03:13:23;66602.00;;;0.00;nan
9091;BME280;4581;42.416;25.598;2023-04-20T03:15:50;66606.59;;;0.00;nan
9091;BME280;4581;42.416;25.598;2023-04-20T03:18:16;66617.28;;;0.00;nan
9091;BME280;4581;42.416;25.598;2023-04-20T03:20:43;66614.22;;;0.00;nan
9091;BME280;4581;42.416;25.598;2023-04-20T03:23:10;66605.06;;;0.00;nan
9091;BME280;4581;42.416;25.598;2023-04-20T03:25:36;66606.59;;;0.00;nan
9091;BME280;4581;42.416;25.598;2023-04-20T03:28:03;66611.16;;;0.00;nan
9091;BME280;4581;42.416;25.598;2023-04-20T03:30:30;66608.13;;;0.00;nan
9091;BME280;4581;42.416;25.598;2023-04-20T03:32:56;66600.47;;;0.00;nan
9091;BME280;4581;42.416;25.598;2023-04-20T03:35:23;66592.84;;;0.00;nan
9091;BME280;4581;42.416;25.598;2023-04-20T03:37:50;66592.84;;;0.00;nan
9091;BME280;4581;42.416;25.598;2023-04-20T03:40:17;66591.31;;;0.00;nan
9091;BME280;4581;42.416;25.598;2023-04-20T03:42:43;66588.28;;;0.00;nan
9091;BME280;4581;42.416;25.598;2023-04-20T03:45:10;66588.28;;;0.00;nan
9091;BME280;4581;42.416;25.598;2023-04-20T03:47:37;66588.28;;;0.00;nan
9091;BME280;4581;42.416;25.598;2023-04-20T03:50:05;66586.75;;;0.00;nan
9091;BME280;4581;42.416;25.598;2023-04-20T03:52:31;66586.75;;;0.00;nan
9091;BME280;4581;42.416;25.598;2023-04-20T03:54:58;66588.28;;;0.00;nan
9091;BME280;4581;42.416;25.598;2023-04-20T03:57:25;66577.59;;;0.00;nan
9091;BME280;4581;42.416;25.598;2023-04-20T03:59:52;66577.59;;;0.00;nan
9091;BME280;4581;42.416;25.598;2023-04-20T04:02:18;66573.03;;;0.00;nan
9091;BME280;4581;42.416;25.598;2023-04-20T04:04:47;66568.44;;;0.00;nan
9091;BME280;4581;42.416;25.598;2023-04-20T04:07:14;66562.34;;;0.00;nan
9091;BME280;4581;42.416;25.598;2023-04-20T04:09:41;66559.28;;;0.00;nan
9091;BME280;4581;42.416;25.598;2023-04-20T04:12:08;66556.22;;;0.00;nan
9091;BME280;4581;42.416;25.598;2023-04-20T04:14:34;66547.06;;;0.00;nan
9091;BME280;4581;42.416;25.598;2023-04-20T04:17:01;66550.13;;;0.00;nan
9091;BME280;4581;42.416;25.598;2023-04-20T04:19:28;66550.13;;;0.00;nan
9091;BME280;4581;42.416;25.598;2023-04-20T04:21:54;66545.56;;;0.00;nan
9091;BME280;4581;42.416;25.598;2023-04-20T04:24:21;66540.97;;;0.00;nan
9091;BME280;4581;42.416;25.598;2023-04-20T04:26:48;66544.03;;;0.00;nan
9091;BME280;4581;42.416;25.598;2023-04-20T04:29:15;66553.19;;;0.00;nan
9091;BME280;4581;42.416;25.598;2023-04-20T04:31:42;66547.06;;;0.00;nan
9091;BME280;4581;42.416;25.598;2023-04-20T04:34:08;66556.22;;;0.00;nan
9091;BME280;4581;42.416;25.598;2023-04-20T04:36:36;66568.44;;;0.00;nan
9091;BME280;4581;42.416;25.598;2023-04-20T04:39:02;66574.53;;;0.00;nan
9091;BME280;4581;42.416;25.598;2023-04-20T04:41:29;66585.22;;;0.00;nan
9091;BME280;4581;42.416;25.598;2023-04-20T04:43:56;66579.13;;;0.00;nan
9091;BME280;4581;42.416;25.598;2023-04-20T04:46:24;66582.19;;;0.00;nan
9091;BME280;4581;42.416;25.598;2023-04-20T04:48:53;66595.91;;;0.00;nan
9091;BME280;4581;42.416;25.598;2023-04-20T04:51:19;66592.84;;;0.00;nan
9091;BME280;4581;42.416;25.598;2023-04-20T04:53:46;66594.38;;;0.00;nan
9091;BME280;4581;42.416;25.598;2023-04-20T04:56:14;66580.66;;;0.00;nan
9091;BME280;4581;42.416;25.598;2023-04-20T04:58:43;66569.97;;;0.00;nan
9091;BME280;4581;42.416;25.598;2023-04-20T05:01:11;66551.66;;;0.00;nan
9091;BME280;4581;42.416;25.598;2023-04-20T05:03:37;66531.81;;;0.00;nan
9091;BME280;4581;42.416;25.598;2023-04-20T05:06:04;66516.56;;;0.00;nan
9091;BME280;4581;42.416;25.598;2023-04-20T05:08:32;66496.72;;;0.00;nan
9091;BME280;4581;42.416;25.598;2023-04-20T05:10:58;66483.00;;;0.00;nan
9091;BME280;4581;42.416;25.598;2023-04-20T05:13:25;66458.56;;;0.00;nan
9091;BME280;4581;42.416;25.598;2023-04-20T05:15:52;66443.31;;;0.00;nan
9091;BME280;4581;42.416;25.598;2023-04-20T05:18:18;66417.38;;;0.00;nan
9091;BME280;4581;42.416;25.598;2023-04-20T05:20:45;66402.13;;;0.00;nan
9091;BME280;4581;42.416;25.598;2023-04-20T05:23:12;66377.72;;;0.00;nan
9091;BME280;4581;42.416;25.598;2023-04-20T05:25:39;66362.44;;;0.00;nan
9091;BME280;4581;42.416;25.598;2023-04-20T05:28:06;66319.72;;;0.00;nan
9091;BME280;4581;42.416;25.598;2023-04-20T05:30:32;66278.53;;;0.00;nan
9091;BME280;4581;42.416;25.598;2023-04-20T05:32:59;66244.94;;;0.00;nan
9091;BME280;4581;42.416;25.598;2023-04-20T05:35:26;66241.91;;;0.00;nan
9091;BME280;4581;42.416;25.598;2023-04-20T05:37:52;66157.97;;;0.00;nan
9091;BME280;4581;42.416;25.598;2023-04-20T05:40:19;66103.03;;;0.00;nan
9091;BME280;4581;42.416;25.598;2023-04-20T05:42:46;66086.25;;;0.00;nan
9091;BME280;4581;42.416;25.598;2023-04-20T05:45:12;66077.09;;;0.00;nan
9091;BME280;4581;42.416;25.598;2023-04-20T05:47:39;66049.63;;;0.00;nan
9091;BME280;4581;42.416;25.598;2023-04-20T05:50:07;65985.56;;;0.00;nan
9091;BME280;4581;42.416;25.598;2023-04-20T05:52:34;65970.28;;;0.00;nan
9091;BME280;4581;42.416;25.598;2023-04-20T05:55:00;65991.66;;;0.00;nan
9091;BME280;4581;42.416;25.598;2023-04-20T05:57:27;66008.44;;;0.00;nan
9091;BME280;4581;42.416;25.598;2023-04-20T05:59:54;66077.09;;;0.00;nan
9091;BME280;4581;42.416;25.598;2023-04-20T06:02:21;65991.66;;;0.00;nan
9091;BME280;4581;42.416;25.598;2023-04-20T06:04:48;65932.16;;;0.00;nan
9091;BME280;4581;42.416;25.598;2023-04-20T06:07:15;65894.00;;;0.00;nan
9091;BME280;4581;42.416;25.598;2023-04-20T06:09:42;65839.06;;;0.00;nan
9091;BME280;4581;42.416;25.598;2023-04-20T06:12:08;65807.03;;;0.00;nan
9091;BME280;4581;42.416;25.598;2023-04-20T06:14:36;65784.13;;;0.00;nan
9091;BME280;4581;42.416;25.598;2023-04-20T06:17:02;65776.50;;;0.00;nan
9091;BME280;4581;42.416;25.598;2023-04-20T06:19:29;65741.41;;;0.00;nan
9091;BME280;4581;42.416;25.598;2023-04-20T06:21:56;65726.16;;;0.00;nan
9091;BME280;4581;42.416;25.598;2023-04-20T06:24:25;65720.03;;;0.00;nan
9091;BME280;4581;42.416;25.598;2023-04-20T06:26:53;65726.16;;;0.00;nan
9091;BME280;4581;42.416;25.598;2023-04-20T06:29:20;65701.75;;;0.00;nan
9091;BME280;4581;42.416;25.598;2023-04-20T06:31:46;65698.69;;;0.00;nan
9091;BME280;4581;42.416;25.598;2023-04-20T06:34:13;65692.59;;;0.00;nan
9091;BME280;4581;42.416;25.598;2023-04-20T06:36:43;65695.63;;;0.00;nan
9091;BME280;4581;42.416;25.598;2023-04-20T06:39:09;65718.53;;;0.00;nan
9091;BME280;4581;42.416;25.598;2023-04-20T06:41:39;65717.00;;;0.00;nan
9091;BME280;4581;42.416;25.598;2023-04-20T06:44:06;65770.41;;;0.00;nan
9091;BME280;4581;42.416;25.598;2023-04-20T06:46:32;65698.69;;;0.00;nan
9091;BME280;4581;42.416;25.598;2023-04-20T06:48:59;65747.50;;;0.00;nan
9091;BME280;4581;42.416;25.598;2023-04-20T06:51:26;65697.16;;;0.00;nan
9091;BME280;4581;42.416;25.598;2023-04-20T06:53:55;65710.88;;;0.00;nan
9091;BME280;4581;42.416;25.598;2023-04-20T06:56:22;65700.22;;;0.00;nan
9091;BME280;4581;42.416;25.598;2023-04-20T06:58:48;65724.63;;;0.00;nan
9091;BME280;4581;42.416;25.598;2023-04-20T07:01:15;65741.41;;;0.00;nan
9091;BME280;4581;42.416;25.598;2023-04-20T07:03:42;65713.94;;;0.00;nan
9091;BME280;4581;42.416;25.598;2023-04-20T07:06:09;65706.31;;;0.00;nan
9091;BME280;4581;42.416;25.598;2023-04-20T07:08:38;65698.69;;;0.00;nan
9091;BME280;4581;42.416;25.598;2023-04-20T07:11:04;65700.22;;;0.00;nan
9091;BME280;4581;42.416;25.598;2023-04-20T07:13:31;65695.63;;;0.00;nan
9091;BME280;4581;42.416;25.598;2023-04-20T07:15:59;65718.53;;;0.00;nan
9091;BME280;4581;42.416;25.598;2023-04-20T07:18:26;65712.41;;;0.00;nan
9091;BME280;4581;42.416;25.598;2023-04-20T07:20:52;65709.38;;;0.00;nan
9091;BME280;4581;42.416;25.598;2023-04-20T07:23:19;65726.16;;;0.00;nan
9091;BME280;4581;42.416;25.598;2023-04-20T07:25:46;65762.78;;;0.00;nan
9091;BME280;4581;42.416;25.598;2023-04-20T07:28:13;65746.00;;;0.00;nan
9091;BME280;4581;42.416;25.598;2023-04-20T07:30:40;65750.56;;;0.00;nan
9091;BME280;4581;42.416;25.598;2023-04-20T07:33:07;65710.88;;;0.00;nan
9091;BME280;4581;42.416;25.598;2023-04-20T07:35:34;65710.88;;;0.00;nan
9091;BME280;4581;42.416;25.598;2023-04-20T07:38:01;65724.63;;;0.00;nan
9091;BME280;4581;42.416;25.598;2023-04-20T07:40:28;65762.78;;;0.00;nan
9091;BME280;4581;42.416;25.598;2023-04-20T07:42:54;65723.09;;;0.00;nan
9091;BME280;4581;42.416;25.598;2023-04-20T07:45:21;65735.31;;;0.00;nan
9091;BME280;4581;42.416;25.598;2023-04-20T07:47:57;65749.03;;;0.00;nan
9091;BME280;4581;42.416;25.598;2023-04-20T07:50:26;65746.00;;;0.00;nan
9091;BME280;4581;42.416;25.598;2023-04-20T07:52:53;65723.09;;;0.00;nan
9091;BME280;4581;42.416;25.598;2023-04-20T07:55:20;65683.44;;;0.00;nan
9091;BME280;4581;42.416;25.598;2023-04-20T07:57:47;65718.53;;;0.00;nan
9091;BME280;4581;42.416;25.598;2023-04-20T08:00:14;65700.22;;;0.00;nan
9091;BME280;4581;42.416;25.598;2023-04-20T08:02:40;65718.53;;;0.00;nan
9091;BME280;4581;42.416;25.598;2023-04-20T08:05:07;65727.69;;;0.00;nan
9091;BME280;4581;42.416;25.598;2023-04-20T08:07:36;65735.31;;;0.00;nan
9091;BME280;4581;42.416;25.598;2023-04-20T08:10:03;65724.63;;;0.00;nan
9091;BME280;4581;42.416;25.598;2023-04-20T08:12:30;65747.50;;;0.00;nan
9091;BME280;4581;42.416;25.598;2023-04-20T08:14:57;65767.34;;;0.00;nan
9091;BME280;4581;42.416;25.598;2023-04-20T08:17:27;65788.72;;;0.00;nan
9091;BME280;4581;42.416;25.598;2023-04-20T08:19:53;65768.88;;;0.00;nan
9091;BME280;4581;42.416;25.598;2023-04-20T08:22:20;65752.09;;;0.00;nan
9091;BME280;4581;42.416;25.598;2023-04-20T08:24:47;65791.75;;;0.00;nan
9091;BME280;4581;42.416;25.598;2023-04-20T08:27:14;65742.94;;;0.00;nan
9091;BME280;4581;42.416;25.598;2023-04-20T08:29:40;65787.19;;;0.00;nan
9091;BME280;4581;42.416;25.598;2023-04-20T08:32:07;65811.59;;;0.00;nan
9091;BME280;4581;42.416;25.598;2023-04-20T08:34:34;65903.16;;;0.00;nan
9091;BME280;4581;42.416;25.598;2023-04-20T08:37:01;65915.38;;;0.00;nan
9091;BME280;4581;42.416;25.598;2023-04-20T08:39:29;65866.53;;;0.00;nan
9091;BME280;4581;42.416;25.598;2023-04-20T08:41:55;65819.22;;;0.00;nan
9091;BME280;4581;42.416;25.598;2023-04-20T08:44:23;65744.47;;;0.00;nan
9091;BME280;4581;42.416;25.598;2023-04-20T08:46:50;65749.03;;;0.00;nan
9091;BME280;4581;42.416;25.598;2023-04-20T08:49:18;65755.16;;;0.00;nan
9091;BME280;4581;42.416;25.598;2023-04-20T08:51:46;65746.00;;;0.00;nan
9091;BME280;4581;42.416;25.598;2023-04-20T08:54:14;65730.72;;;0.00;nan
9091;BME280;4581;42.416;25.598;2023-04-20T08:56:44;65729.19;;;0.00;nan
9091;BME280;4581;42.416;25.598;2023-04-20T08:59:11;65692.59;;;0.00;nan
9091;BME280;4581;42.416;25.598;2023-04-20T09:01:40;65660.53;;;0.00;nan
9091;BME280;4581;42.416;25.598;2023-04-20T09:06:46;65578.13;;;0.00;nan
9091;BME280;4581;42.416;25.598;2023-04-20T09:09:16;65610.19;;;0.00;nan
9091;BME280;4581;42.416;25.598;2023-04-20T09:11:43;65646.81;;;0.00;nan
9091;BME280;4581;42.416;25.598;2023-04-20T09:14:12;65701.75;;;0.00;nan
9091;BME280;4581;42.416;25.598;2023-04-20T09:16:49;65733.78;;;0.00;nan
9091;BME280;4581;42.416;25.598;2023-04-20T09:19:21;65793.28;;;0.00;nan
9091;BME280;4581;42.416;25.598;2023-04-20T09:21:50;65811.59;;;0.00;nan
9091;BME280;4581;42.416;25.598;2023-04-20T09:24:19;65848.22;;;0.00;nan
9091;BME280;4581;42.416;25.598;2023-04-20T09:26:47;65784.13;;;0.00;nan
9091;BME280;4581;42.416;25.598;2023-04-20T09:29:20;65717.00;;;0.00;nan
9091;BME280;4581;42.416;25.598;2023-04-20T09:31:48;65695.63;;;0.00;nan
9091;BME280;4581;42.416;25.598;2023-04-20T09:34:15;65729.19;;;0.00;nan
9091;BME280;4581;42.416;25.598;2023-04-20T09:36:47;65784.13;;;0.00;nan
9091;BME280;4581;42.416;25.598;2023-04-20T09:39:19;65785.66;;;0.00;nan
9091;BME280;4581;42.416;25.598;2023-04-20T09:41:46;65790.25;;;0.00;nan
9091;BME280;4581;42.416;25.598;2023-04-20T09:44:15;65793.28;;;0.00;nan
9091;BME280;4581;42.416;25.598;2023-04-20T09:46:43;65773.44;;;0.00;nan
9091;BME280;4581;42.416;25.598;2023-04-20T09:49:11;65784.13;;;0.00;nan
9091;BME280;4581;42.416;25.598;2023-04-20T09:51:42;65797.88;;;0.00;nan
9091;BME280;4581;42.416;25.598;2023-04-20T09:54:13;65860.44;;;0.00;nan
9091;BME280;4581;42.416;25.598;2023-04-20T09:56:41;65894.00;;;0.00;nan
9091;BME280;4581;42.416;25.598;2023-04-20T09:59:08;65861.97;;;0.00;nan
9091;BME280;4581;42.416;25.598;2023-04-20T10:01:35;65825.34;;;0.00;nan
9091;BME280;4581;42.416;25.598;2023-04-20T10:04:06;65802.44;;;0.00;nan
9091;BME280;4581;42.416;25.598;2023-04-20T10:06:35;65825.34;;;0.00;nan
9091;BME280;4581;42.416;25.598;2023-04-20T10:09:05;65803.97;;;0.00;nan
9091;BME280;4581;42.416;25.598;2023-04-20T10:11:37;65773.44;;;0.00;nan
9091;BME280;4581;42.416;25.598;2023-04-20T10:14:22;65707.84;;;0.00;nan
9091;BME280;4581;42.416;25.598;2023-04-20T10:17:01;65643.75;;;0.00;nan
9091;BME280;4581;42.416;25.598;2023-04-20T10:19:44;65636.13;;;0.00;nan
9091;BME280;4581;42.416;25.598;2023-04-20T10:22:12;65610.19;;;0.00;nan
9091;BME280;4581;42.416;25.598;2023-04-20T10:24:50;65594.94;;;0.00;nan
9091;BME280;4581;42.416;25.598;2023-04-20T10:27:18;65610.19;;;0.00;nan
9091;BME280;4581;42.416;25.598;2023-04-20T10:29:45;65646.81;;;0.00;nan
9091;BME280;4581;42.416;25.598;2023-04-20T10:32:25;65620.88;;;0.00;nan
9091;BME280;4581;42.416;25.598;2023-04-20T10:35:06;65681.91;;;0.00;nan
9091;BME280;4581;42.416;25.598;2023-04-20T10:37:34;65713.94;;;0.00;nan
9091;BME280;4581;42.416;25.598;2023-04-20T10:40:02;65750.56;;;0.00;nan
9091;BME280;4581;42.416;25.598;2023-04-20T10:42:45;65764.28;;;0.00;nan
9091;BME280;4581;42.416;25.598;2023-04-20T10:45:12;65803.97;;;0.00;nan
9091;BME280;4581;42.416;25.598;2023-04-20T10:47:39;65829.91;;;0.00;nan
9091;BME280;4581;42.416;25.598;2023-04-20T10:50:12;65890.94;;;0.00;nan
9091;BME280;4581;42.416;25.598;2023-04-20T10:52:43;65898.56;;;0.00;nan
9091;BME280;4581;42.416;25.598;2023-04-20T10:55:24;65930.63;;;0.00;nan
9091;BME280;4581;42.416;25.598;2023-04-20T10:57:51;65948.94;;;0.00;nan
9091;BME280;4581;42.416;25.598;2023-04-20T11:00:24;65961.13;;;0.00;nan
9091;BME280;4581;42.416;25.598;2023-04-20T11:02:52;66028.28;;;0.00;nan
9091;BME280;4581;42.416;25.598;2023-04-20T11:05:23;66071.00;;;0.00;nan
9091;BME280;4581;42.416;25.598;2023-04-20T11:10:17;66124.41;;;0.00;nan
9091;BME280;4581;42.416;25.598;2023-04-20T11:12:44;66125.94;;;0.00;nan
9091;BME280;4581;42.416;25.598;2023-04-20T11:15:11;66113.72;;;0.00;nan
9091;BME280;4581;42.416;25.598;2023-04-20T11:17:39;66136.63;;;0.00;nan
9091;BME280;4581;42.416;25.598;2023-04-20T11:20:13;66162.56;;;0.00;nan
9091;BME280;4581;42.416;25.598;2023-04-20T11:22:43;66185.44;;;0.00;nan
9091;BME280;4581;42.416;25.598;2023-04-20T11:25:11;66167.13;;;0.00;nan
9091;BME280;4581;42.416;25.598;2023-04-20T11:27:38;66151.88;;;0.00;nan
9091;BME280;4581;42.416;25.598;2023-04-20T11:30:06;66130.50;;;0.00;nan
9091;BME280;4581;42.416;25.598;2023-04-20T11:32:35;66122.88;;;0.00;nan
9091;BME280;4581;42.416;25.598;2023-04-20T11:35:07;66104.56;;;0.00;nan
9091;BME280;4581;42.416;25.598;2023-04-20T11:37:48;66083.22;;;0.00;nan
9091;BME280;4581;42.416;25.598;2023-04-20T11:40:16;66078.63;;;0.00;nan
9091;BME280;4581;42.416;25.598;2023-04-20T11:42:43;66058.78;;;0.00;nan
9091;BME280;4581;42.416;25.598;2023-04-20T11:45:10;65994.72;;;0.00;nan
9091;BME280;4581;42.416;25.598;2023-04-20T11:47:38;65924.50;;;0.00;nan
9091;BME280;4581;42.416;25.598;2023-04-20T11:50:07;65843.66;;;0.00;nan
9091;BME280;4581;42.416;25.598;2023-04-20T11:52:34;65768.88;;;0.00;nan
9091;BME280;4581;42.416;25.598;2023-04-20T11:55:01;65723.09;;;0.00;nan
9091;BME280;4581;42.416;25.598;2023-04-20T11:57:28;65715.47;;;0.00;nan
9091;BME280;4581;42.416;25.598;2023-04-20T11:59:54;65723.09;;;0.00;nan
9091;BME280;4581;42.416;25.598;2023-04-20T12:02:21;65755.16;;;0.00;nan
9091;BME280;4581;42.416;25.598;2023-04-20T12:04:48;65761.25;;;0.00;nan
9091;BME280;4581;42.416;25.598;2023-04-20T12:07:15;65741.41;;;0.00;nan
9091;BME280;4581;42.416;25.598;2023-04-20T12:09:42;65759.72;;;0.00;nan
9091;BME280;4581;42.416;25.598;2023-04-20T12:12:10;65776.50;;;0.00;nan
9091;BME280;4581;42.416;25.598;2023-04-20T12:14:36;65857.38;;;0.00;nan
9091;BME280;4581;42.416;25.598;2023-04-20T12:17:03;65788.72;;;0.00;nan
9091;BME280;4581;42.416;25.598;2023-04-20T12:19:30;65756.66;;;0.00;nan
9091;BME280;4581;42.416;25.598;2023-04-20T12:21:57;65684.94;;;0.00;nan
9091;BME280;4581;42.416;25.598;2023-04-20T12:24:24;65674.28;;;0.00;nan
9091;BME280;4581;42.416;25.598;2023-04-20T12:26:51;65692.59;;;0.00;nan
9091;BME280;4581;42.416;25.598;2023-04-20T12:29:17;65640.69;;;0.00;nan
9091;BME280;4581;42.416;25.598;2023-04-20T12:31:45;65666.63;;;0.00;nan
9091;BME280;4581;42.416;25.598;2023-04-20T12:34:11;65717.00;;;0.00;nan
9091;BME280;4581;42.416;25.598;2023-04-20T12:36:38;65701.75;;;0.00;nan
9091;BME280;4581;42.416;25.598;2023-04-20T12:39:05;65695.63;;;0.00;nan
9091;BME280;4581;42.416;25.598;2023-04-20T12:41:32;65695.63;;;0.00;nan
9091;BME280;4581;42.416;25.598;2023-04-20T12:43:59;65649.84;;;0.00;nan
9091;BME280;4581;42.416;25.598;2023-04-20T12:46:28;65652.91;;;0.00;nan
9091;BME280;4581;42.416;25.598;2023-04-20T12:48:55;65674.28;;;0.00;nan
9091;BME280;4581;42.416;25.598;2023-04-20T12:51:22;65669.69;;;0.00;nan
9091;BME280;4581;42.416;25.598;2023-04-20T12:53:49;65651.38;;;0.00;nan
9091;BME280;4581;42.416;25.598;2023-04-20T12:56:15;65686.47;;;0.00;nan
9091;BME280;4581;42.416;25.598;2023-04-20T12:58:43;65666.63;;;0.00;nan
9091;BME280;4581;42.416;25.598;2023-04-20T13:01:10;65665.13;;;0.00;nan
9091;BME280;4581;42.416;25.598;2023-04-20T13:03:37;65668.16;;;0.00;nan
9091;BME280;4581;42.416;25.598;2023-04-20T13:06:04;65652.91;;;0.00;nan
9091;BME280;4581;42.416;25.598;2023-04-20T13:08:31;65662.06;;;0.00;nan
9091;BME280;4581;42.416;25.598;2023-04-20T13:10:57;65700.22;;;0.00;nan
9091;BME280;4581;42.416;25.598;2023-04-20T13:13:24;65713.94;;;0.00;nan
9091;BME280;4581;42.416;25.598;2023-04-20T13:15:54;65729.19;;;0.00;nan
9091;BME280;4581;42.416;25.598;2023-04-20T13:18:21;65735.31;;;0.00;nan
9091;BME280;4581;42.416;25.598;2023-04-20T13:20:49;65778.03;;;0.00;nan
9091;BME280;4581;42.416;25.598;2023-04-20T13:23:16;65820.75;;;0.00;nan
9091;BME280;4581;42.416;25.598;2023-04-20T13:25:43;65848.22;;;0.00;nan
9091;BME280;4581;42.416;25.598;2023-04-20T13:28:10;65854.31;;;0.00;nan
9091;BME280;4581;42.416;25.598;2023-04-20T13:30:39;65852.81;;;0.00;nan
9091;BME280;4581;42.416;25.598;2023-04-20T13:33:06;65861.97;;;0.00;nan
9091;BME280;4581;42.416;25.598;2023-04-20T13:35:33;65865.00;;;0.00;nan
9091;BME280;4581;42.416;25.598;2023-04-20T13:38:02;65884.84;;;0.00;nan
9091;BME280;4581;42.416;25.598;2023-04-20T13:40:29;65895.53;;;0.00;nan
9091;BME280;4581;42.416;25.598;2023-04-20T13:42:56;65929.09;;;0.00;nan
9091;BME280;4581;42.416;25.598;2023-04-20T13:45:23;65944.34;;;0.00;nan
9091;BME280;4581;42.416;25.598;2023-04-20T13:47:50;65955.03;;;0.00;nan
9091;BME280;4581;42.416;25.598;2023-04-20T13:50:17;65947.41;;;0.00;nan
9091;BME280;4581;42.416;25.598;2023-04-20T13:52:44;65947.41;;;0.00;nan